createdAt,value
2018-11-22T12:16:42.754Z,28.63
2018-11-22T12:21:52.348Z,27.37
2018-11-22T12:27:01.717Z,26.53
2018-11-22T12:32:17.585Z,26.00
2018-11-22T12:37:35.099Z,27.97
2018-11-22T12:42:44.483Z,25.97
2018-11-22T12:47:54.177Z,26.60
2018-11-22T12:53:03.725Z,26.47
2018-11-22T12:58:13.241Z,26.87
2018-11-22T13:03:22.658Z,30.17
2018-11-22T13:08:32.233Z,27.23
2018-11-22T13:13:41.725Z,24.63
2018-11-22T13:18:51.910Z,30.57
2018-11-22T13:24:01.497Z,27.13
2018-11-22T13:29:11.216Z,29.73
2018-11-22T13:34:20.994Z,30.93
2018-11-22T13:39:30.609Z,32.63
2018-11-22T13:44:39.995Z,31.83
2018-11-22T13:49:49.313Z,28.13
2018-11-22T13:54:58.730Z,25.27
2018-11-22T14:00:13.347Z,27.77
2018-11-22T14:05:22.977Z,30.40
2018-11-22T14:10:32.474Z,29.23
2018-11-22T14:15:42.045Z,30.60
2018-11-22T14:20:52.282Z,24.83
2018-11-22T14:26:01.682Z,30.23
2018-11-22T14:31:11.140Z,28.57
2018-11-22T14:36:20.826Z,20.57
2018-11-22T14:41:30.212Z,29.07
2018-11-22T14:46:39.824Z,19.63
2018-11-22T14:51:50.721Z,32.23
2018-11-22T14:57:00.632Z,32.25
2018-11-22T15:02:10.201Z,31.27
2018-11-22T15:07:19.652Z,28.77
2018-11-22T15:12:30.278Z,27.37
2018-11-22T15:17:40.249Z,31.40
2018-11-22T15:22:51.057Z,20.47
2018-11-22T15:28:00.943Z,29.13
2018-11-22T15:33:10.465Z,19.93
2018-11-22T15:38:20.132Z,30.40
2018-11-22T15:43:29.905Z,18.57
2018-11-22T15:48:39.389Z,19.40
2018-11-22T15:53:48.956Z,18.10
2018-11-22T15:58:58.821Z,18.00
2018-11-22T16:04:08.375Z,17.73
2018-11-22T16:09:18.647Z,19.43
2018-11-22T16:14:28.313Z,18.33
2018-11-22T16:19:37.682Z,19.87
2018-11-22T16:24:47.374Z,20.57
2018-11-22T16:29:57.046Z,21.23
2018-11-22T16:35:08.332Z,20.97
2018-11-22T16:40:19.176Z,17.93
2018-11-22T16:45:31.919Z,21.50
2018-11-22T16:50:42.059Z,20.33
2018-11-22T16:55:51.804Z,20.00
2018-11-22T17:01:00.262Z,20.27
2018-11-22T17:06:09.842Z,24.20
2018-11-22T17:11:19.302Z,23.30
2018-11-22T17:16:28.881Z,30.80
2018-11-22T17:21:38.449Z,30.97
2018-11-22T17:26:47.800Z,34.07
2018-11-22T17:31:57.216Z,26.97
2018-11-22T17:37:06.610Z,36.17
2018-11-22T17:42:16.180Z,32.53
2018-11-22T17:47:25.838Z,35.20
2018-11-22T17:52:35.253Z,29.63
2018-11-22T17:57:44.809Z,30.13
2018-11-22T18:02:55.270Z,33.63
2018-11-22T18:08:05.082Z,24.03
2018-11-22T18:13:14.504Z,22.10
2018-11-22T18:24:36.769Z,24.60
2018-11-22T18:29:46.163Z,26.77
2018-11-22T18:34:55.797Z,22.00
2018-11-22T18:40:06.625Z,32.30
2018-11-22T18:45:20.204Z,36.67
2018-11-22T18:50:30.689Z,39.90
2018-11-22T18:55:40.090Z,40.47
2018-11-22T19:00:49.738Z,39.40
2018-11-22T19:05:59.261Z,41.47
2018-11-22T19:11:08.797Z,40.60
2018-11-22T19:16:18.160Z,32.30
2018-11-22T19:21:27.521Z,34.50
2018-11-22T19:26:31.334Z,40.23
2018-11-22T19:31:40.774Z,35.93
2018-11-22T19:36:50.262Z,30.33
2018-11-22T19:41:59.654Z,41.47
2018-11-22T19:47:06.997Z,35.03
2018-11-22T19:52:12.225Z,38.47
2018-11-22T19:57:21.654Z,38.63
2018-11-22T20:02:31.058Z,41.13
2018-11-22T20:07:41.197Z,36.27
2018-11-22T20:12:50.614Z,34.20
2018-11-22T20:18:01.022Z,36.43
2018-11-22T20:23:04.811Z,35.07
2018-11-22T20:28:14.237Z,35.70
2018-11-22T20:33:18.051Z,24.70
2018-11-22T20:38:21.831Z,23.57
2018-11-22T20:43:31.229Z,32.20
2018-11-22T20:48:40.782Z,32.30
2018-11-22T20:53:50.194Z,36.33
2018-11-22T20:58:59.769Z,27.90
2018-11-22T21:04:09.134Z,33.30
2018-11-22T21:09:17.294Z,33.67
2018-11-22T21:14:26.897Z,30.93
2018-11-22T21:19:36.430Z,32.43
2018-11-22T21:24:46.042Z,35.30
2018-11-22T21:29:55.800Z,27.10
2018-11-22T21:35:06.031Z,32.50
2018-11-22T21:40:10.341Z,30.23
2018-11-22T21:45:16.138Z,29.87
2018-11-22T21:50:21.287Z,21.03
2018-11-22T21:55:31.035Z,25.97
2018-11-22T22:00:41.692Z,34.40
2018-11-22T22:05:51.085Z,26.67
2018-11-22T22:11:00.472Z,32.37
2018-11-22T22:16:09.880Z,25.87
2018-11-22T22:21:19.237Z,29.80
2018-11-22T22:26:22.983Z,20.70
2018-11-22T22:31:26.792Z,18.97
2018-11-22T22:36:30.766Z,18.03
2018-11-22T22:41:34.851Z,17.00
2018-11-22T22:46:38.600Z,23.83
2018-11-22T22:51:42.373Z,29.07
2018-11-22T22:56:46.777Z,17.50
2018-11-22T23:01:50.527Z,31.87
2018-11-22T23:06:54.328Z,30.63
2018-11-22T23:11:58.126Z,26.97
2018-11-22T23:17:01.897Z,33.67
2018-11-22T23:22:05.672Z,26.70
2018-11-22T23:27:09.485Z,31.13
2018-11-22T23:32:13.282Z,30.13
2018-11-22T23:37:17.130Z,29.13
2018-11-22T23:42:20.928Z,33.13
2018-11-22T23:47:24.756Z,24.93
2018-11-22T23:52:28.638Z,28.97
2018-11-22T23:57:32.410Z,30.30
